sensor_id;sensor_type;location;lat;lon;timestamp;P1;durP1;ratioP1;P2;durP2;ratioP2
30862;SDS011;17573;55.922;37.540;2023-06-14T00:01:55;15.32;;;7.22;;
30862;SDS011;17573;55.922;37.540;2023-06-14T00:04:21;11.25;;;7.18;;
30862;SDS011;17573;55.922;37.540;2023-06-14T00:06:47;10.18;;;8.02;;
30862;SDS011;17573;55.922;37.540;2023-06-14T00:09:13;18.98;;;8.85;;
30862;SDS011;17573;55.922;37.540;2023-06-14T00:11:42;16.67;;;8.57;;
30862;SDS011;17573;55.922;37.540;2023-06-14T00:14:08;23.73;;;9.38;;
30862;SDS011;17573;55.922;37.540;2023-06-14T00:16:33;12.57;;;7.50;;
30862;SDS011;17573;55.922;37.540;2023-06-14T00:19:01;13.77;;;8.15;;
30862;SDS011;17573;55.922;37.540;2023-06-14T00:21:29;21.48;;;7.82;;
30862;SDS011;17573;55.922;37.540;2023-06-14T00:23:55;9.30;;;7.22;;
30862;SDS011;17573;55.922;37.540;2023-06-14T00:26:21;14.55;;;8.48;;
30862;SDS011;17573;55.922;37.540;2023-06-14T00:28:47;14.30;;;8.32;;
30862;SDS011;17573;55.922;37.540;2023-06-14T00:31:13;11.23;;;7.15;;
30862;SDS011;17573;55.922;37.540;2023-06-14T00:33:38;19.08;;;7.60;;
30862;SDS011;17573;55.922;37.540;2023-06-14T00:36:04;11.75;;;8.32;;
30862;SDS011;17573;55.922;37.540;2023-06-14T00:38:30;12.25;;;7.18;;
30862;SDS011;17573;55.922;37.540;2023-06-14T00:40:56;8.93;;;6.95;;
30862;SDS011;17573;55.922;37.540;2023-06-14T00:43:22;16.85;;;8.05;;
30862;SDS011;17573;55.922;37.540;2023-06-14T00:45:47;14.38;;;8.82;;
30862;SDS011;17573;55.922;37.540;2023-06-14T00:48:15;26.90;;;9.30;;
30862;SDS011;17573;55.922;37.540;2023-06-14T00:50:42;19.55;;;10.50;;
30862;SDS011;17573;55.922;37.540;2023-06-14T00:53:11;11.60;;;7.97;;
30862;SDS011;17573;55.922;37.540;2023-06-14T00:55:38;19.02;;;8.93;;
30862;SDS011;17573;55.922;37.540;2023-06-14T00:58:03;19.45;;;8.50;;
30862;SDS011;17573;55.922;37.540;2023-06-14T01:00:30;23.60;;;8.65;;
30862;SDS011;17573;55.922;37.540;2023-06-14T01:02:55;20.80;;;9.30;;
30862;SDS011;17573;55.922;37.540;2023-06-14T01:05:22;21.52;;;8.70;;
30862;SDS011;17573;55.922;37.540;2023-06-14T01:13:23;16.83;;;7.72;;
30862;SDS011;17573;55.922;37.540;2023-06-14T01:15:52;10.15;;;7.50;;
30862;SDS011;17573;55.922;37.540;2023-06-14T01:18:18;14.45;;;8.27;;
30862;SDS011;17573;55.922;37.540;2023-06-14T01:20:45;15.27;;;8.05;;
30862;SDS011;17573;55.922;37.540;2023-06-14T01:23:18;14.88;;;7.90;;
30862;SDS011;17573;55.922;37.540;2023-06-14T01:25:44;14.60;;;8.73;;
30862;SDS011;17573;55.922;37.540;2023-06-14T01:28:11;23.92;;;10.50;;
30862;SDS011;17573;55.922;37.540;2023-06-14T01:30:39;21.20;;;10.65;;
30862;SDS011;17573;55.922;37.540;2023-06-14T01:33:14;16.58;;;10.55;;
30862;SDS011;17573;55.922;37.540;2023-06-14T01:35:44;21.83;;;12.32;;
30862;SDS011;17573;55.922;37.540;2023-06-14T01:38:12;22.40;;;12.60;;
30862;SDS011;17573;55.922;37.540;2023-06-14T01:40:39;23.10;;;13.23;;
30862;SDS011;17573;55.922;37.540;2023-06-14T01:43:05;18.73;;;11.27;;
30862;SDS011;17573;55.922;37.540;2023-06-14T01:45:31;27.77;;;11.93;;
30862;SDS011;17573;55.922;37.540;2023-06-14T01:47:58;21.80;;;12.50;;
30862;SDS011;17573;55.922;37.540;2023-06-14T01:50:29;19.30;;;11.35;;
30862;SDS011;17573;55.922;37.540;2023-06-14T01:52:56;23.10;;;11.13;;
30862;SDS011;17573;55.922;37.540;2023-06-14T01:55:22;25.63;;;10.75;;
30862;SDS011;17573;55.922;37.540;2023-06-14T01:57:50;17.83;;;11.32;;
30862;SDS011;17573;55.922;37.540;2023-06-14T02:00:17;27.23;;;10.70;;
30862;SDS011;17573;55.922;37.540;2023-06-14T02:02:43;15.48;;;9.55;;
30862;SDS011;17573;55.922;37.540;2023-06-14T02:05:10;20.30;;;10.30;;
30862;SDS011;17573;55.922;37.540;2023-06-14T02:07:36;24.77;;;9.65;;
30862;SDS011;17573;55.922;37.540;2023-06-14T02:10:02;23.00;;;10.68;;
30862;SDS011;17573;55.922;37.540;2023-06-14T02:12:29;20.67;;;10.60;;
30862;SDS011;17573;55.922;37.540;2023-06-14T02:14:57;22.58;;;11.40;;
30862;SDS011;17573;55.922;37.540;2023-06-14T02:17:23;19.25;;;10.40;;
30862;SDS011;17573;55.922;37.540;2023-06-14T02:19:50;18.60;;;8.82;;
30862;SDS011;17573;55.922;37.540;2023-06-14T02:22:15;20.20;;;10.07;;
30862;SDS011;17573;55.922;37.540;2023-06-14T02:24:42;16.77;;;9.38;;
30862;SDS011;17573;55.922;37.540;2023-06-14T02:27:08;24.30;;;9.18;;
30862;SDS011;17573;55.922;37.540;2023-06-14T02:29:36;18.08;;;9.27;;
30862;SDS011;17573;55.922;37.540;2023-06-14T02:32:03;18.88;;;8.57;;
30862;SDS011;17573;55.922;37.540;2023-06-14T02:34:30;22.85;;;10.07;;
30862;SDS011;17573;55.922;37.540;2023-06-14T02:36:55;17.05;;;9.30;;
30862;SDS011;17573;55.922;37.540;2023-06-14T02:39:22;10.32;;;8.15;;
30862;SDS011;17573;55.922;37.540;2023-06-14T02:41:48;18.63;;;9.65;;
30862;SDS011;17573;55.922;37.540;2023-06-14T02:44:17;12.82;;;8.57;;
30862;SDS011;17573;55.922;37.540;2023-06-14T02:46:43;27.75;;;9.68;;
30862;SDS011;17573;55.922;37.540;2023-06-14T02:49:10;23.33;;;9.20;;
30862;SDS011;17573;55.922;37.540;2023-06-14T02:51:37;17.52;;;9.30;;
30862;SDS011;17573;55.922;37.540;2023-06-14T02:54:03;21.23;;;8.68;;
30862;SDS011;17573;55.922;37.540;2023-06-14T02:56:29;18.55;;;9.43;;
30862;SDS011;17573;55.922;37.540;2023-06-14T02:58:56;16.92;;;9.52;;
30862;SDS011;17573;55.922;37.540;2023-06-14T03:01:24;17.08;;;9.43;;
30862;SDS011;17573;55.922;37.540;2023-06-14T03:04:01;15.95;;;9.10;;
30862;SDS011;17573;55.922;37.540;2023-06-14T03:06:30;13.35;;;9.68;;
30862;SDS011;17573;55.922;37.540;2023-06-14T03:08:58;16.98;;;8.18;;
30862;SDS011;17573;55.922;37.540;2023-06-14T03:11:26;24.00;;;9.63;;
30862;SDS011;17573;55.922;37.540;2023-06-14T03:13:52;19.17;;;9.32;;
30862;SDS011;17573;55.922;37.540;2023-06-14T03:16:19;21.92;;;9.18;;
30862;SDS011;17573;55.922;37.540;2023-06-14T03:18:48;25.95;;;9.63;;
30862;SDS011;17573;55.922;37.540;2023-06-14T03:21:14;21.42;;;8.52;;
30862;SDS011;17573;55.922;37.540;2023-06-14T03:23:43;15.18;;;7.88;;
30862;SDS011;17573;55.922;37.540;2023-06-14T03:26:09;13.40;;;8.20;;
30862;SDS011;17573;55.922;37.540;2023-06-14T03:28:38;17.50;;;9.07;;
30862;SDS011;17573;55.922;37.540;2023-06-14T03:31:04;16.63;;;8.80;;
30862;SDS011;17573;55.922;37.540;2023-06-14T03:33:31;12.88;;;7.40;;
30862;SDS011;17573;55.922;37.540;2023-06-14T03:35:57;23.13;;;8.05;;
30862;SDS011;17573;55.922;37.540;2023-06-14T03:38:23;10.60;;;7.70;;
30862;SDS011;17573;55.922;37.540;2023-06-14T03:40:50;13.00;;;7.60;;
30862;SDS011;17573;55.922;37.540;2023-06-14T03:43:15;12.85;;;7.72;;
30862;SDS011;17573;55.922;37.540;2023-06-14T03:45:41;15.43;;;8.70;;
30862;SDS011;17573;55.922;37.540;2023-06-14T03:48:08;17.50;;;8.32;;
30862;SDS011;17573;55.922;37.540;2023-06-14T03:50:34;17.35;;;8.45;;
30862;SDS011;17573;55.922;37.540;2023-06-14T03:53:03;19.00;;;8.13;;
30862;SDS011;17573;55.922;37.540;2023-06-14T03:55:31;10.02;;;7.35;;
30862;SDS011;17573;55.922;37.540;2023-06-14T03:57:58;18.65;;;8.20;;
30862;SDS011;17573;55.922;37.540;2023-06-14T04:00:24;23.52;;;7.78;;
30862;SDS011;17573;55.922;37.540;2023-06-14T04:02:51;9.05;;;7.30;;
30862;SDS011;17573;55.922;37.540;2023-06-14T04:05:17;12.65;;;7.97;;
30862;SDS011;17573;55.922;37.540;2023-06-14T04:07:47;14.80;;;7.95;;
30862;SDS011;17573;55.922;37.540;2023-06-14T04:10:14;12.82;;;7.45;;
30862;SDS011;17573;55.922;37.540;2023-06-14T04:12:41;21.83;;;8.45;;
30862;SDS011;17573;55.922;37.540;2023-06-14T04:15:07;18.77;;;9.88;;
30862;SDS011;17573;55.922;37.540;2023-06-14T04:17:34;15.95;;;7.78;;
30862;SDS011;17573;55.922;37.540;2023-06-14T04:20:03;28.20;;;9.15;;
30862;SDS011;17573;55.922;37.540;2023-06-14T04:22:32;18.63;;;8.45;;
30862;SDS011;17573;55.922;37.540;2023-06-14T04:24:59;17.05;;;7.35;;
30862;SDS011;17573;55.922;37.540;2023-06-14T04:27:26;18.48;;;8.25;;
30862;SDS011;17573;55.922;37.540;2023-06-14T04:29:53;15.88;;;7.25;;
30862;SDS011;17573;55.922;37.540;2023-06-14T04:32:24;19.35;;;7.80;;
30862;SDS011;17573;55.922;37.540;2023-06-14T04:34:55;11.13;;;6.75;;
30862;SDS011;17573;55.922;37.540;2023-06-14T04:37:23;14.25;;;7.20;;
30862;SDS011;17573;55.922;37.540;2023-06-14T04:39:50;14.00;;;6.63;;
30862;SDS011;17573;55.922;37.540;2023-06-14T04:42:18;24.70;;;7.47;;
30862;SDS011;17573;55.922;37.540;2023-06-14T04:44:46;11.15;;;6.50;;
30862;SDS011;17573;55.922;37.540;2023-06-14T04:47:14;23.48;;;7.05;;
30862;SDS011;17573;55.922;37.540;2023-06-14T04:49:42;13.95;;;6.55;;
30862;SDS011;17573;55.922;37.540;2023-06-14T04:52:07;12.00;;;7.68;;
30862;SDS011;17573;55.922;37.540;2023-06-14T04:54:40;20.75;;;7.38;;
30862;SDS011;17573;55.922;37.540;2023-06-14T04:57:11;8.27;;;6.63;;
30862;SDS011;17573;55.922;37.540;2023-06-14T04:59:44;9.20;;;6.00;;
30862;SDS011;17573;55.922;37.540;2023-06-14T05:02:11;23.10;;;7.03;;
30862;SDS011;17573;55.922;37.540;2023-06-14T05:04:37;16.27;;;5.78;;
30862;SDS011;17573;55.922;37.540;2023-06-14T05:07:07;19.70;;;6.88;;
30862;SDS011;17573;55.922;37.540;2023-06-14T05:09:35;15.20;;;6.93;;
30862;SDS011;17573;55.922;37.540;2023-06-14T05:12:01;14.30;;;7.13;;
30862;SDS011;17573;55.922;37.540;2023-06-14T05:14:27;8.73;;;6.03;;
30862;SDS011;17573;55.922;37.540;2023-06-14T05:16:55;11.00;;;5.28;;
30862;SDS011;17573;55.922;37.540;2023-06-14T05:19:20;13.38;;;6.00;;
30862;SDS011;17573;55.922;37.540;2023-06-14T05:21:47;15.07;;;5.90;;
30862;SDS011;17573;55.922;37.540;2023-06-14T05:24:13;10.90;;;6.00;;
30862;SDS011;17573;55.922;37.540;2023-06-14T05:26:39;10.75;;;6.05;;
30862;SDS011;17573;55.922;37.540;2023-06-14T05:29:05;11.38;;;6.43;;
30862;SDS011;17573;55.922;37.540;2023-06-14T05:31:31;13.50;;;5.65;;
30862;SDS011;17573;55.922;37.540;2023-06-14T05:33:57;17.67;;;5.55;;
30862;SDS011;17573;55.922;37.540;2023-06-14T05:36:23;7.75;;;5.68;;
30862;SDS011;17573;55.922;37.540;2023-06-14T05:38:50;13.48;;;5.90;;
30862;SDS011;17573;55.922;37.540;2023-06-14T05:41:25;14.07;;;5.25;;
30862;SDS011;17573;55.922;37.540;2023-06-14T05:43:52;23.23;;;5.38;;
30862;SDS011;17573;55.922;37.540;2023-06-14T05:46:19;9.93;;;5.13;;
30862;SDS011;17573;55.922;37.540;2023-06-14T05:48:47;11.57;;;5.20;;
30862;SDS011;17573;55.922;37.540;2023-06-14T05:51:14;7.20;;;5.03;;
30862;SDS011;17573;55.922;37.540;2023-06-14T05:53:41;15.40;;;5.38;;
30862;SDS011;17573;55.922;37.540;2023-06-14T05:56:06;7.35;;;4.47;;
30862;SDS011;17573;55.922;37.540;2023-06-14T05:58:32;20.10;;;4.65;;
30862;SDS011;17573;55.922;37.540;2023-06-14T06:00:58;11.80;;;4.53;;
30862;SDS011;17573;55.922;37.540;2023-06-14T06:03:24;7.57;;;4.40;;
30862;SDS011;17573;55.922;37.540;2023-06-14T06:05:50;10.50;;;4.38;;
30862;SDS011;17573;55.922;37.540;2023-06-14T06:08:15;13.65;;;4.47;;
30862;SDS011;17573;55.922;37.540;2023-06-14T06:10:42;8.57;;;4.75;;
30862;SDS011;17573;55.922;37.540;2023-06-14T06:13:08;10.35;;;4.85;;
30862;SDS011;17573;55.922;37.540;2023-06-14T06:15:34;17.05;;;4.45;;
30862;SDS011;17573;55.922;37.540;2023-06-14T06:18:01;16.58;;;4.60;;
30862;SDS011;17573;55.922;37.540;2023-06-14T06:20:26;23.85;;;5.72;;
30862;SDS011;17573;55.922;37.540;2023-06-14T06:22:57;12.95;;;4.32;;
30862;SDS011;17573;55.922;37.540;2023-06-14T06:25:23;13.77;;;3.83;;
30862;SDS011;17573;55.922;37.540;2023-06-14T06:27:51;12.02;;;5.28;;
30862;SDS011;17573;55.922;37.540;2023-06-14T06:30:18;8.55;;;4.80;;
30862;SDS011;17573;55.922;37.540;2023-06-14T06:32:45;20.77;;;5.88;;
30862;SDS011;17573;55.922;37.540;2023-06-14T06:35:11;11.65;;;4.68;;
30862;SDS011;17573;55.922;37.540;2023-06-14T06:37:39;14.63;;;3.92;;
30862;SDS011;17573;55.922;37.540;2023-06-14T06:40:06;14.63;;;3.75;;
30862;SDS011;17573;55.922;37.540;2023-06-14T06:42:33;9.00;;;4.93;;
30862;SDS011;17573;55.922;37.540;2023-06-14T06:45:02;18.75;;;4.70;;
30862;SDS011;17573;55.922;37.540;2023-06-14T06:47:30;19.05;;;5.00;;
30862;SDS011;17573;55.922;37.540;2023-06-14T06:49:56;11.10;;;4.30;;
30862;SDS011;17573;55.922;37.540;2023-06-14T06:52:22;12.85;;;4.20;;
30862;SDS011;17573;55.922;37.540;2023-06-14T06:54:47;8.30;;;3.50;;
30862;SDS011;17573;55.922;37.540;2023-06-14T06:57:14;16.77;;;4.13;;
30862;SDS011;17573;55.922;37.540;2023-06-14T06:59:40;12.10;;;4.05;;
30862;SDS011;17573;55.922;37.540;2023-06-14T07:02:06;12.80;;;4.00;;
30862;SDS011;17573;55.922;37.540;2023-06-14T07:04:32;18.67;;;4.43;;
30862;SDS011;17573;55.922;37.540;2023-06-14T07:06:57;9.70;;;4.53;;
30862;SDS011;17573;55.922;37.540;2023-06-14T07:09:23;22.02;;;4.78;;
30862;SDS011;17573;55.922;37.540;2023-06-14T07:11:49;10.45;;;3.58;;
30862;SDS011;17573;55.922;37.540;2023-06-14T07:14:15;12.57;;;3.72;;
30862;SDS011;17573;55.922;37.540;2023-06-14T07:16:41;11.55;;;4.40;;
30862;SDS011;17573;55.922;37.540;2023-06-14T07:19:08;10.40;;;4.38;;
30862;SDS011;17573;55.922;37.540;2023-06-14T07:21:34;13.27;;;4.25;;
30862;SDS011;17573;55.922;37.540;2023-06-14T07:24:03;11.27;;;3.75;;
30862;SDS011;17573;55.922;37.540;2023-06-14T07:26:29;11.90;;;4.40;;
30862;SDS011;17573;55.922;37.540;2023-06-14T07:28:55;11.23;;;3.90;;
30862;SDS011;17573;55.922;37.540;2023-06-14T07:31:21;13.88;;;3.83;;
30862;SDS011;17573;55.922;37.540;2023-06-14T07:33:47;14.02;;;4.07;;
30862;SDS011;17573;55.922;37.540;2023-06-14T07:36:13;17.95;;;4.03;;
30862;SDS011;17573;55.922;37.540;2023-06-14T07:38:38;22.17;;;5.03;;
30862;SDS011;17573;55.922;37.540;2023-06-14T07:41:06;25.40;;;4.20;;
30862;SDS011;17573;55.922;37.540;2023-06-14T07:43:32;14.73;;;3.63;;
30862;SDS011;17573;55.922;37.540;2023-06-14T07:45:57;12.57;;;3.80;;
30862;SDS011;17573;55.922;37.540;2023-06-14T07:48:23;7.63;;;3.45;;
30862;SDS011;17573;55.922;37.540;2023-06-14T07:50:49;8.77;;;3.75;;
30862;SDS011;17573;55.922;37.540;2023-06-14T07:53:15;11.20;;;3.88;;
30862;SDS011;17573;55.922;37.540;2023-06-14T07:55:41;14.80;;;3.53;;
30862;SDS011;17573;55.922;37.540;2023-06-14T07:58:08;14.38;;;5.13;;
30862;SDS011;17573;55.922;37.540;2023-06-14T08:00:34;9.48;;;3.67;;
30862;SDS011;17573;55.922;37.540;2023-06-14T08:03:00;9.23;;;3.60;;
30862;SDS011;17573;55.922;37.540;2023-06-14T08:05:26;10.63;;;3.45;;
30862;SDS011;17573;55.922;37.540;2023-06-14T08:07:52;7.50;;;3.95;;
30862;SDS011;17573;55.922;37.540;2023-06-14T08:10:18;15.32;;;4.10;;
30862;SDS011;17573;55.922;37.540;2023-06-14T08:12:46;11.43;;;3.70;;
30862;SDS011;17573;55.922;37.540;2023-06-14T08:15:12;6.70;;;3.53;;
30862;SDS011;17573;55.922;37.540;2023-06-14T08:17:41;9.63;;;4.80;;
30862;SDS011;17573;55.922;37.540;2023-06-14T08:20:08;9.52;;;3.58;;
30862;SDS011;17573;55.922;37.540;2023-06-14T08:22:35;21.33;;;4.10;;
30862;SDS011;17573;55.922;37.540;2023-06-14T08:25:01;7.32;;;3.60;;
30862;SDS011;17573;55.922;37.540;2023-06-14T08:27:27;5.82;;;3.53;;
30862;SDS011;17573;55.922;37.540;2023-06-14T08:29:53;20.45;;;4.30;;
30862;SDS011;17573;55.922;37.540;2023-06-14T08:32:19;7.97;;;3.50;;
30862;SDS011;17573;55.922;37.540;2023-06-14T08:34:45;13.75;;;3.92;;
30862;SDS011;17573;55.922;37.540;2023-06-14T08:37:11;6.45;;;3.47;;
30862;SDS011;17573;55.922;37.540;2023-06-14T08:39:37;12.98;;;2.78;;
30862;SDS011;17573;55.922;37.540;2023-06-14T08:42:03;13.32;;;4.68;;
30862;SDS011;17573;55.922;37.540;2023-06-14T08:44:30;11.68;;;3.50;;
30862;SDS011;17573;55.922;37.540;2023-06-14T08:46:56;14.70;;;3.35;;
30862;SDS011;17573;55.922;37.540;2023-06-14T08:49:25;5.40;;;3.33;;
30862;SDS011;17573;55.922;37.540;2023-06-14T08:51:59;3.47;;;2.78;;
30862;SDS011;17573;55.922;37.540;2023-06-14T08:54:29;26.17;;;5.97;;
30862;SDS011;17573;55.922;37.540;2023-06-14T08:57:02;7.95;;;3.15;;
30862;SDS011;17573;55.922;37.540;2023-06-14T08:59:29;11.85;;;3.30;;
30862;SDS011;17573;55.922;37.540;2023-06-14T09:01:56;6.38;;;2.72;;
30862;SDS011;17573;55.922;37.540;2023-06-14T09:04:22;13.15;;;4.15;;
30862;SDS011;17573;55.922;37.540;2023-06-14T09:06:55;24.42;;;3.67;;
30862;SDS011;17573;55.922;37.540;2023-06-14T09:09:21;17.08;;;4.00;;
30862;SDS011;17573;55.922;37.540;2023-06-14T09:11:51;5.18;;;3.53;;
30862;SDS011;17573;55.922;37.540;2023-06-14T09:14:18;8.52;;;3.20;;
30862;SDS011;17573;55.922;37.540;2023-06-14T09:16:44;7.68;;;3.35;;
30862;SDS011;17573;55.922;37.540;2023-06-14T09:19:31;10.95;;;4.03;;
30862;SDS011;17573;55.922;37.540;2023-06-14T09:21:56;9.25;;;3.88;;
30862;SDS011;17573;55.922;37.540;2023-06-14T09:24:23;14.95;;;3.63;;
30862;SDS011;17573;55.922;37.540;2023-06-14T09:26:51;10.23;;;3.38;;
30862;SDS011;17573;55.922;37.540;2023-06-14T09:29:17;7.65;;;3.28;;
30862;SDS011;17573;55.922;37.540;2023-06-14T09:31:45;9.07;;;2.80;;
30862;SDS011;17573;55.922;37.540;2023-06-14T09:34:11;20.42;;;3.95;;
30862;SDS011;17573;55.922;37.540;2023-06-14T09:36:37;28.42;;;3.45;;
30862;SDS011;17573;55.922;37.540;2023-06-14T09:39:05;15.43;;;3.97;;
30862;SDS011;17573;55.922;37.540;2023-06-14T09:44:04;9.63;;;4.07;;
30862;SDS011;17573;55.922;37.540;2023-06-14T09:46:34;10.35;;;3.38;;
30862;SDS011;17573;55.922;37.540;2023-06-14T09:49:00;10.80;;;3.63;;
30862;SDS011;17573;55.922;37.540;2023-06-14T09:51:27;12.52;;;3.20;;
30862;SDS011;17573;55.922;37.540;2023-06-14T09:53:59;7.95;;;3.22;;
30862;SDS011;17573;55.922;37.540;2023-06-14T09:56:36;8.75;;;3.50;;
30862;SDS011;17573;55.922;37.540;2023-06-14T09:59:04;6.03;;;2.80;;
30862;SDS011;17573;55.922;37.540;2023-06-14T10:01:31;7.68;;;3.15;;
30862;SDS011;17573;55.922;37.540;2023-06-14T10:04:02;17.88;;;3.70;;
30862;SDS011;17573;55.922;37.540;2023-06-14T10:06:29;13.90;;;3.35;;
30862;SDS011;17573;55.922;37.540;2023-06-14T10:08:56;12.55;;;3.03;;
30862;SDS011;17573;55.922;37.540;2023-06-14T10:11:27;15.32;;;3.47;;
30862;SDS011;17573;55.922;37.540;2023-06-14T10:13:57;6.15;;;3.22;;
30862;SDS011;17573;55.922;37.540;2023-06-14T10:16:28;9.95;;;3.17;;
30862;SDS011;17573;55.922;37.540;2023-06-14T10:21:50;17.80;;;3.42;;
30862;SDS011;17573;55.922;37.540;2023-06-14T10:24:27;9.68;;;2.80;;
30862;SDS011;17573;55.922;37.540;2023-06-14T10:26:57;13.60;;;3.35;;
30862;SDS011;17573;55.922;37.540;2023-06-14T10:29:24;15.38;;;3.13;;
30862;SDS011;17573;55.922;37.540;2023-06-14T10:31:53;6.68;;;4.63;;
30862;SDS011;17573;55.922;37.540;2023-06-14T10:34:25;13.90;;;3.50;;
30862;SDS011;17573;55.922;37.540;2023-06-14T10:37:01;15.32;;;3.78;;
30862;SDS011;17573;55.922;37.540;2023-06-14T10:39:32;16.70;;;3.28;;
30862;SDS011;17573;55.922;37.540;2023-06-14T10:42:03;7.32;;;3.42;;
30862;SDS011;17573;55.922;37.540;2023-06-14T10:46:58;7.10;;;3.67;;
30862;SDS011;17573;55.922;37.540;2023-06-14T10:52:08;13.27;;;3.20;;
30862;SDS011;17573;55.922;37.540;2023-06-14T10:57:38;10.90;;;3.83;;
30862;SDS011;17573;55.922;37.540;2023-06-14T11:00:05;8.45;;;3.03;;
30862;SDS011;17573;55.922;37.540;2023-06-14T11:11:24;7.90;;;2.20;;
30862;SDS011;17573;55.922;37.540;2023-06-14T11:13:57;5.15;;;3.35;;
30862;SDS011;17573;55.922;37.540;2023-06-14T11:16:22;12.30;;;2.83;;
30862;SDS011;17573;55.922;37.540;2023-06-14T11:18:52;29.58;;;4.60;;
30862;SDS011;17573;55.922;37.540;2023-06-14T11:21:18;21.10;;;3.85;;
30862;SDS011;17573;55.922;37.540;2023-06-14T11:23:50;19.35;;;2.80;;
30862;SDS011;17573;55.922;37.540;2023-06-14T11:26:24;7.30;;;2.85;;
30862;SDS011;17573;55.922;37.540;2023-06-14T11:29:00;14.40;;;3.15;;
30862;SDS011;17573;55.922;37.540;2023-06-14T11:31:26;6.45;;;3.03;;
30862;SDS011;17573;55.922;37.540;2023-06-14T11:33:53;16.20;;;4.20;;
30862;SDS011;17573;55.922;37.540;2023-06-14T11:36:22;17.10;;;3.88;;
30862;SDS011;17573;55.922;37.540;2023-06-14T11:38:49;10.93;;;3.63;;
30862;SDS011;17573;55.922;37.540;2023-06-14T11:41:15;14.27;;;3.17;;
30862;SDS011;17573;55.922;37.540;2023-06-14T11:43:41;4.72;;;2.63;;
30862;SDS011;17573;55.922;37.540;2023-06-14T11:46:13;9.35;;;2.75;;
30862;SDS011;17573;55.922;37.540;2023-06-14T11:48:43;14.20;;;3.13;;
30862;SDS011;17573;55.922;37.540;2023-06-14T11:51:09;7.65;;;2.92;;
30862;SDS011;17573;55.922;37.540;2023-06-14T11:53:35;8.55;;;3.35;;
30862;SDS011;17573;55.922;37.540;2023-06-14T11:56:01;9.15;;;3.20;;
30862;SDS011;17573;55.922;37.540;2023-06-14T11:58:27;7.43;;;3.97;;
30862;SDS011;17573;55.922;37.540;2023-06-14T12:00:55;7.10;;;3.05;;
30862;SDS011;17573;55.922;37.540;2023-06-14T12:03:24;8.77;;;3.22;;
30862;SDS011;17573;55.922;37.540;2023-06-14T12:06:01;16.45;;;3.22;;
30862;SDS011;17573;55.922;37.540;2023-06-14T12:08:36;5.95;;;2.72;;
30862;SDS011;17573;55.922;37.540;2023-06-14T12:11:07;5.57;;;3.22;;
30862;SDS011;17573;55.922;37.540;2023-06-14T12:13:40;17.23;;;3.15;;
30862;SDS011;17573;55.922;37.540;2023-06-14T12:16:07;11.43;;;3.83;;
30862;SDS011;17573;55.922;37.540;2023-06-14T12:18:34;9.65;;;3.72;;
30862;SDS011;17573;55.922;37.540;2023-06-14T12:21:02;7.65;;;3.10;;
30862;SDS011;17573;55.922;37.540;2023-06-14T12:26:21;9.65;;;3.28;;
30862;SDS011;17573;55.922;37.540;2023-06-14T12:28:51;6.72;;;2.63;;
30862;SDS011;17573;55.922;37.540;2023-06-14T12:31:17;4.95;;;3.20;;
30862;SDS011;17573;55.922;37.540;2023-06-14T12:33:44;9.15;;;3.08;;
30862;SDS011;17573;55.922;37.540;2023-06-14T12:36:11;10.32;;;3.38;;
30862;SDS011;17573;55.922;37.540;2023-06-14T12:38:37;9.95;;;3.72;;
30862;SDS011;17573;55.922;37.540;2023-06-14T12:41:03;5.50;;;3.40;;
30862;SDS011;17573;55.922;37.540;2023-06-14T12:43:29;16.83;;;3.65;;
30862;SDS011;17573;55.922;37.540;2023-06-14T12:45:54;31.80;;;5.32;;
30862;SDS011;17573;55.922;37.540;2023-06-14T12:48:20;25.52;;;3.97;;
30862;SDS011;17573;55.922;37.540;2023-06-14T12:50:47;13.90;;;3.78;;
30862;SDS011;17573;55.922;37.540;2023-06-14T12:53:13;5.20;;;3.95;;
30862;SDS011;17573;55.922;37.540;2023-06-14T12:55:39;6.95;;;3.58;;
30862;SDS011;17573;55.922;37.540;2023-06-14T12:58:05;12.80;;;3.70;;
30862;SDS011;17573;55.922;37.540;2023-06-14T13:00:31;13.20;;;3.88;;
30862;SDS011;17573;55.922;37.540;2023-06-14T13:02:57;8.30;;;4.00;;
30862;SDS011;17573;55.922;37.540;2023-06-14T13:05:23;16.55;;;3.40;;
30862;SDS011;17573;55.922;37.540;2023-06-14T13:07:49;14.80;;;3.95;;
30862;SDS011;17573;55.922;37.540;2023-06-14T13:10:16;22.15;;;3.72;;
30862;SDS011;17573;55.922;37.540;2023-06-14T13:12:42;13.10;;;4.20;;
30862;SDS011;17573;55.922;37.540;2023-06-14T13:15:08;8.82;;;3.55;;
30862;SDS011;17573;55.922;37.540;2023-06-14T13:17:34;13.65;;;4.07;;
30862;SDS011;17573;55.922;37.540;2023-06-14T13:20:07;9.55;;;3.67;;
30862;SDS011;17573;55.922;37.540;2023-06-14T13:22:34;25.05;;;4.85;;
30862;SDS011;17573;55.922;37.540;2023-06-14T13:25:00;15.23;;;4.07;;
30862;SDS011;17573;55.922;37.540;2023-06-14T13:27:26;14.93;;;3.60;;
30862;SDS011;17573;55.922;37.540;2023-06-14T13:29:53;9.25;;;3.05;;
30862;SDS011;17573;55.922;37.540;2023-06-14T13:32:20;15.80;;;3.72;;
30862;SDS011;17573;55.922;37.540;2023-06-14T13:34:46;17.60;;;4.32;;
30862;SDS011;17573;55.922;37.540;2023-06-14T13:37:12;8.60;;;3.92;;
30862;SDS011;17573;55.922;37.540;2023-06-14T13:39:38;8.65;;;4.05;;
30862;SDS011;17573;55.922;37.540;2023-06-14T13:42:04;9.80;;;3.45;;
30862;SDS011;17573;55.922;37.540;2023-06-14T13:44:30;13.60;;;4.05;;
30862;SDS011;17573;55.922;37.540;2023-06-14T13:46:56;14.75;;;4.35;;
30862;SDS011;17573;55.922;37.540;2023-06-14T13:49:22;10.25;;;3.70;;
30862;SDS011;17573;55.922;37.540;2023-06-14T13:51:47;10.88;;;4.88;;
30862;SDS011;17573;55.922;37.540;2023-06-14T13:54:13;8.98;;;3.88;;
30862;SDS011;17573;55.922;37.540;2023-06-14T13:56:45;19.97;;;3.83;;
30862;SDS011;17573;55.922;37.540;2023-06-14T13:59:11;10.75;;;4.50;;
30862;SDS011;17573;55.922;37.540;2023-06-14T14:01:37;14.82;;;3.10;;
30862;SDS011;17573;55.922;37.540;2023-06-14T14:04:03;14.18;;;3.70;;
30862;SDS011;17573;55.922;37.540;2023-06-14T14:06:30;5.13;;;3.45;;
30862;SDS011;17573;55.922;37.540;2023-06-14T14:08:56;14.38;;;4.45;;
30862;SDS011;17573;55.922;37.540;2023-06-14T14:11:22;10.40;;;3.38;;
30862;SDS011;17573;55.922;37.540;2023-06-14T14:13:48;12.88;;;4.53;;
30862;SDS011;17573;55.922;37.540;2023-06-14T14:16:14;8.45;;;4.10;;
30862;SDS011;17573;55.922;37.540;2023-06-14T14:18:40;7.60;;;4.05;;
30862;SDS011;17573;55.922;37.540;2023-06-14T14:21:06;11.23;;;4.65;;
30862;SDS011;17573;55.922;37.540;2023-06-14T14:23:32;9.73;;;4.18;;
30862;SDS011;17573;55.922;37.540;2023-06-14T14:25:57;11.43;;;4.13;;
30862;SDS011;17573;55.922;37.540;2023-06-14T14:28:23;11.18;;;3.85;;
30862;SDS011;17573;55.922;37.540;2023-06-14T14:30:49;13.07;;;4.50;;
30862;SDS011;17573;55.922;37.540;2023-06-14T14:33:15;9.27;;;3.63;;
30862;SDS011;17573;55.922;37.540;2023-06-14T14:35:42;8.90;;;4.10;;
30862;SDS011;17573;55.922;37.540;2023-06-14T14:38:11;8.50;;;3.47;;
30862;SDS011;17573;55.922;37.540;2023-06-14T14:40:38;12.35;;;3.90;;
30862;SDS011;17573;55.922;37.540;2023-06-14T14:43:04;16.42;;;3.50;;
30862;SDS011;17573;55.922;37.540;2023-06-14T14:45:30;15.18;;;3.47;;
30862;SDS011;17573;55.922;37.540;2023-06-14T14:47:56;21.63;;;4.25;;
30862;SDS011;17573;55.922;37.540;2023-06-14T14:50:22;11.20;;;4.50;;
30862;SDS011;17573;55.922;37.540;2023-06-14T14:52:48;6.28;;;3.30;;
30862;SDS011;17573;55.922;37.540;2023-06-14T14:55:14;18.30;;;4.35;;